Time;durP1;ratioP1;P1;durP2;ratioP2;P2;SDS_P1;SDS_P2;PMS_P1;PMS_P2;Temp;Humidity;BMP_temperature;BMP_pressure;BME280_temperature;BME280_humidity;BME280_pressure;Samples;Min_cycle;Max_cycle;Signal;HPM_P1;HPM_P2
2021/04/27 00:02:03;;;;;;;1999.90;999.90;;;;;;;12.28;90.88;95374.19;5070240;28;20203;-63
2021/04/27 00:04:30;;;;;;;1999.90;999.90;;;;;;;12.27;90.00;95368.22;5070220;28;20193;-63
2021/04/27 00:06:57;;;;;;;1999.90;999.90;;;;;;;12.31;89.66;95379.53;5070187;28;20235;-64
2021/04/27 00:09:23;;;;;;;1999.90;999.90;;;;;;;12.29;92.62;95368.69;5070359;28;20192;-63
2021/04/27 00:11:50;;;;;;;1999.90;999.90;;;;;;;12.22;92.26;95378.00;5069862;28;20645;-63
2021/04/27 00:14:17;;;;;;;1999.90;999.90;;;;;;;12.22;91.43;95372.81;5070217;28;20219;-63
2021/04/27 00:16:44;;;;;;;1999.90;999.90;;;;;;;12.25;92.06;95369.59;5070010;28;20224;-63
2021/04/27 00:19:11;;;;;;;1999.90;999.90;;;;;;;12.23;92.56;95382.16;5070123;28;20192;-63
2021/04/27 00:21:38;;;;;;;1999.90;999.90;;;;;;;12.35;94.76;95369.28;5069965;28;20226;-63
2021/04/27 00:24:06;;;;;;;1999.90;999.90;;;;;;;12.44;93.04;95368.22;5070318;28;20251;-63
2021/04/27 00:26:33;;;;;;;1999.90;999.90;;;;;;;12.40;91.44;95371.75;5070151;28;20202;-62
2021/04/27 00:29:00;;;;;;;1999.90;999.90;;;;;;;12.46;88.87;95376.47;5070096;28;20257;-62
2021/04/27 00:31:30;;;;;;;1999.90;999.90;;;;;;;12.41;88.59;95371.44;5069906;28;20201;-62
2021/04/27 00:34:00;;;;;;;1999.90;999.90;;;;;;;12.40;88.46;95377.69;5070138;28;20239;-63
2021/04/27 00:36:28;;;;;;;1999.90;999.90;;;;;;;12.48;89.21;95373.56;5070140;28;20254;-63
2021/04/27 00:38:55;;;;;;;1999.90;999.90;;;;;;;12.41;89.57;95383.69;5069874;28;20188;-63
2021/04/27 00:41:23;;;;;;;1999.90;999.90;;;;;;;12.31;90.48;95381.38;5070829;28;20199;-63
2021/04/27 00:43:50;;;;;;;1999.90;999.90;;;;;;;12.43;89.95;95371.91;5074070;28;20232;-64
2021/04/27 00:46:17;;;;;;;1999.90;999.90;;;;;;;12.46;89.37;95367.91;5074297;28;20227;-61
2021/04/27 00:48:44;;;;;;;1999.90;999.90;;;;;;;12.34;90.54;95359.94;5074245;28;20283;-63
2021/04/27 00:51:10;;;;;;;1999.90;999.90;;;;;;;12.35;90.59;95349.19;5074198;28;20208;-62
2021/04/27 00:53:38;;;;;;;1999.90;999.90;;;;;;;12.22;92.45;95346.75;5073820;28;20196;-63
2021/04/27 00:56:07;;;;;;;1999.90;999.90;;;;;;;12.11;92.61;95353.31;5073738;28;20321;-63
2021/04/27 00:58:34;;;;;;;1999.90;999.90;;;;;;;12.07;93.04;95353.94;5073915;28;20204;-63
2021/04/27 01:01:02;;;;;;;1999.90;999.90;;;;;;;11.97;93.92;95354.25;5074063;28;20204;-62
2021/04/27 01:03:56;;;;;;;1999.90;999.90;;;;;;;11.97;94.47;95346.44;5073618;28;20813;-62
2021/04/27 01:06:23;;;;;;;1999.90;999.90;;;;;;;11.87;94.80;95340.75;5073576;28;20683;-62
2021/04/27 01:09:03;;;;;;;1999.90;999.90;;;;;;;11.87;96.27;95346.72;5073377;28;20663;-64
2021/04/27 01:11:40;;;;;;;1999.90;999.90;;;;;;;11.78;97.05;95351.16;5073449;28;20702;-63
2021/04/27 01:14:10;;;;;;;1999.90;999.90;;;;;;;11.69;99.05;95347.75;5073426;28;20208;-61
2021/04/27 01:16:42;;;;;;;1999.90;999.90;;;;;;;11.53;100.00;95344.78;5073361;28;20228;-61
2021/04/27 01:19:15;;;;;;;1999.90;999.90;;;;;;;11.56;100.00;95359.03;5073334;28;20656;-61
2021/04/27 01:21:43;;;;;;;1999.90;999.90;;;;;;;11.47;100.00;95353.78;5073336;28;20203;-62
2021/04/27 01:24:22;;;;;;;1999.90;999.90;;;;;;;11.48;100.00;95354.56;5073632;28;20771;-63
2021/04/27 01:26:54;;;;;;;1999.90;999.90;;;;;;;11.49;100.00;95343.09;5073229;28;20200;-62
2021/04/27 01:29:26;;;;;;;1999.90;999.90;;;;;;;11.56;100.00;95338.19;5073176;28;20192;-62
2021/04/27 01:31:54;;;;;;;1999.90;999.90;;;;;;;11.36;100.00;95341.34;5073351;28;20677;-62
2021/04/27 01:34:24;;;;;;;1999.90;999.90;;;;;;;11.30;100.00;95337.38;5072961;28;20189;-62
2021/04/27 01:36:52;;;;;;;1999.90;999.90;;;;;;;11.31;100.00;95336.31;5072898;28;20238;-62
2021/04/27 01:39:19;;;;;;;1999.90;999.90;;;;;;;11.43;100.00;95334.66;5072808;28;20202;-62
2021/04/27 01:41:47;;;;;;;1999.90;999.90;;;;;;;11.41;100.00;95339.38;5073115;28;20204;-62
2021/04/27 01:44:16;;;;;;;1999.90;999.90;;;;;;;11.42;100.00;95345.34;5072945;28;20952;-62
2021/04/27 01:46:43;;;;;;;1999.90;999.90;;;;;;;11.32;100.00;95348.22;5072765;28;20278;-63
2021/04/27 01:49:12;;;;;;;1999.90;999.90;;;;;;;11.41;100.00;95333.41;5073161;28;20691;-62
2021/04/27 01:51:43;;;;;;;1999.90;999.90;;;;;;;11.30;100.00;95342.59;5072517;28;20196;-62
2021/04/27 01:54:14;;;;;;;1999.90;999.90;;;;;;;11.36;100.00;95351.75;5071665;28;20558;-62
2021/04/27 01:56:41;;;;;;;1999.90;999.90;;;;;;;11.33;100.00;95349.78;5072655;28;20570;-62
2021/04/27 01:59:08;;;;;;;1999.90;999.90;;;;;;;11.34;100.00;95343.50;5072795;28;20205;-64
2021/04/27 02:01:36;;;;;;;1999.90;999.90;;;;;;;11.26;100.00;95339.06;5072466;28;20197;-62
2021/04/27 02:04:03;;;;;;;1999.90;999.90;;;;;;;11.32;100.00;95340.44;5072490;28;20192;-63
2021/04/27 02:06:31;;;;;;;1999.90;999.90;;;;;;;11.33;100.00;95339.38;5072574;28;20197;-63
2021/04/27 02:09:03;;;;;;;1999.90;999.90;;;;;;;11.30;100.00;95350.38;5072308;28;20254;-65
2021/04/27 02:11:33;;;;;;;1999.90;999.90;;;;;;;11.30;100.00;95350.38;5072282;28;20248;-62
2021/04/27 02:14:01;;;;;;;1999.90;999.90;;;;;;;11.23;100.00;95350.81;5072261;28;20250;-64
2021/04/27 02:16:33;;;;;;;1999.90;999.90;;;;;;;11.33;100.00;95350.53;5072149;28;20612;-64
2021/04/27 02:19:03;;;;;;;1999.90;999.90;;;;;;;11.38;100.00;95347.03;5072242;28;20626;-64
2021/04/27 02:21:33;;;;;;;1999.90;999.90;;;;;;;11.42;100.00;95351.34;5072149;28;20279;-63
2021/04/27 02:24:01;;;;;;;1999.90;999.90;;;;;;;11.30;100.00;95332.19;5072119;28;20193;-63
2021/04/27 02:26:29;;;;;;;1999.90;999.90;;;;;;;11.35;100.00;95337.25;5072205;28;20192;-64
2021/04/27 02:28:56;;;;;;;1999.90;999.90;;;;;;;11.36;100.00;95330.94;5071930;28;20189;-64
2021/04/27 02:31:23;;;;;;;1999.90;999.90;;;;;;;11.40;100.00;95308.50;5071989;28;20199;-65
2021/04/27 02:33:50;;;;;;;1999.90;999.90;;;;;;;11.42;100.00;95301.91;5072123;28;20199;-63
2021/04/27 02:36:18;;;;;;;1999.90;999.90;;;;;;;11.35;100.00;95298.22;5071711;28;20193;-64
2021/04/27 02:42:08;;;;;;;1999.90;999.90;;;;;;;11.52;100.00;95300.84;5071960;28;20345;-63
2021/04/27 02:44:35;;;;;;;1999.90;999.90;;;;;;;11.47;100.00;95308.78;5071753;28;20261;-64
2021/04/27 02:47:02;;;;;;;1999.90;999.90;;;;;;;11.52;100.00;95303.44;5071668;28;20670;-63
2021/04/27 02:49:29;;;;;;;1999.90;999.90;;;;;;;11.48;100.00;95310.34;5071574;28;20656;-63
2021/04/27 02:51:56;;;;;;;1999.90;999.90;;;;;;;11.43;100.00;95313.84;5071561;28;20197;-63
2021/04/27 02:54:24;;;;;;;1999.90;999.90;;;;;;;11.31;100.00;95307.69;5071690;28;20194;-63
2021/04/27 02:56:50;;;;;;;1999.90;999.90;;;;;;;11.31;100.00;95320.72;5071554;28;20260;-63
2021/04/27 02:59:18;;;;;;;1999.90;999.90;;;;;;;11.35;100.00;95314.59;5071385;28;20203;-63
2021/04/27 03:01:46;;;;;;;1999.90;999.90;;;;;;;11.39;100.00;95314.75;5071658;28;20631;-63
2021/04/27 03:04:13;;;;;;;1999.90;999.90;;;;;;;11.49;100.00;95322.28;5071051;28;20659;-62
2021/04/27 03:06:39;;;;;;;1999.90;999.90;;;;;;;11.41;100.00;95328.97;5071253;28;20193;-64
2021/04/27 03:09:07;;;;;;;1999.90;999.90;;;;;;;11.43;100.00;95324.25;5071224;28;20197;-64
2021/04/27 03:11:34;;;;;;;1999.90;999.90;;;;;;;11.51;100.00;95327.94;5070782;28;20225;-62
2021/04/27 03:14:01;;;;;;;1999.90;999.90;;;;;;;11.46;100.00;95335.88;5070907;28;20560;-63
2021/04/27 03:16:29;;;;;;;1999.90;999.90;;;;;;;11.43;100.00;95337.25;5071451;28;20208;-64
2021/04/27 03:18:55;;;;;;;1999.90;999.90;;;;;;;11.45;100.00;95342.19;5071004;28;20224;-64
2021/04/27 03:21:22;;;;;;;1999.90;999.90;;;;;;;11.40;100.00;95344.91;5070959;28;20197;-64
2021/04/27 03:23:49;;;;;;;1999.90;999.90;;;;;;;11.43;100.00;95331.28;5070916;28;20199;-63
2021/04/27 03:26:17;;;;;;;1999.90;999.90;;;;;;;11.40;100.00;95331.91;5070835;28;20192;-63
2021/04/27 03:28:44;;;;;;;1999.90;999.90;;;;;;;11.32;100.00;95337.81;5070712;28;20197;-62
2021/04/27 03:31:13;;;;;;;1999.90;999.90;;;;;;;11.34;100.00;95341.69;5071121;28;20188;-63
2021/04/27 03:33:40;;;;;;;1999.90;999.90;;;;;;;11.30;100.00;95334.78;5071045;28;20232;-63
2021/04/27 03:36:07;;;;;;;1999.90;999.90;;;;;;;11.26;100.00;95334.59;5070887;28;20224;-63
2021/04/27 03:38:34;;;;;;;1999.90;999.90;;;;;;;11.22;100.00;95331.84;5070814;28;20220;-64
2021/04/27 03:41:01;;;;;;;1999.90;999.90;;;;;;;11.26;100.00;95316.38;5070482;28;20200;-63
2021/04/27 03:43:29;;;;;;;1999.90;999.90;;;;;;;11.27;100.00;95327.56;5070593;28;20607;-62
2021/04/27 03:45:56;;;;;;;1999.90;999.90;;;;;;;11.34;100.00;95327.91;5070654;28;20188;-61
2021/04/27 03:48:24;;;;;;;1999.90;999.90;;;;;;;11.34;100.00;95327.91;5070733;28;20196;-62
2021/04/27 03:50:51;;;;;;;1999.90;999.90;;;;;;;11.38;100.00;95326.22;5070477;28;20693;-61
2021/04/27 03:53:18;;;;;;;1999.90;999.90;;;;;;;11.36;100.00;95308.31;5070342;28;20231;-64
2021/04/27 03:55:45;;;;;;;1999.90;999.90;;;;;;;11.43;99.35;95318.28;5070309;28;20283;-61
2021/04/27 03:58:12;;;;;;;1999.90;999.90;;;;;;;11.36;99.36;95323.16;5070256;28;20224;-63
2021/04/27 04:00:40;;;;;;;1999.90;999.90;;;;;;;11.33;99.41;95328.97;5070430;28;20195;-64
2021/04/27 04:03:06;;;;;;;1999.90;999.90;;;;;;;11.36;98.90;95336.16;5070583;28;20240;-62
2021/04/27 04:05:33;;;;;;;1999.90;999.90;;;;;;;11.49;98.90;95337.91;5070185;28;20670;-62
2021/04/27 04:08:00;;;;;;;1999.90;999.90;;;;;;;11.44;99.54;95340.63;5070107;28;20628;-62
2021/04/27 04:10:27;;;;;;;1999.90;999.90;;;;;;;11.50;99.61;95349.84;5070380;28;20195;-63
2021/04/27 04:12:54;;;;;;;1999.90;999.90;;;;;;;11.62;99.39;95360.41;5069580;28;20243;-63
2021/04/27 04:15:22;;;;;;;1999.90;999.90;;;;;;;11.71;99.18;95357.84;5069923;28;20205;-62
2021/04/27 04:17:49;;;;;;;1999.90;999.90;;;;;;;11.80;99.03;95356.84;5069596;28;20224;-62
2021/04/27 04:20:18;;;;;;;1999.90;999.90;;;;;;;11.94;98.35;95354.09;5070161;28;20288;-63
2021/04/27 04:22:45;;;;;;;1999.90;999.90;;;;;;;12.00;98.32;95351.03;5069876;28;20249;-63
2021/04/27 04:25:14;;;;;;;1999.90;999.90;;;;;;;12.02;97.05;95346.28;5070101;28;20192;-63
2021/04/27 04:27:41;;;;;;;1999.90;999.90;;;;;;;12.11;95.67;95338.47;5069815;28;20195;-63
2021/04/27 04:30:13;;;;;;;1999.90;999.90;;;;;;;12.10;94.93;95328.38;5069966;28;20701;-62
2021/04/27 04:32:41;;;;;;;1999.90;999.90;;;;;;;12.07;94.27;95333.13;5070036;28;20682;-63
2021/04/27 04:35:11;;;;;;;1999.90;999.90;;;;;;;12.05;94.13;95319.63;5069916;28;20205;-62
2021/04/27 04:37:39;;;;;;;1999.90;999.90;;;;;;;12.11;93.65;95316.84;5070031;28;20278;-64
2021/04/27 04:40:07;;;;;;;1999.90;999.90;;;;;;;12.09;93.13;95319.78;5070094;28;20295;-63
2021/04/27 04:42:34;;;;;;;1999.90;999.90;;;;;;;12.20;91.88;95317.66;5069912;28;20287;-63
2021/04/27 04:45:00;;;;;;;1999.90;999.90;;;;;;;12.24;91.65;95308.13;5069875;28;20670;-64
2021/04/27 04:47:27;;;;;;;1999.90;999.90;;;;;;;12.33;91.95;95298.47;5069957;28;20246;-63
2021/04/27 04:49:54;;;;;;;1999.90;999.90;;;;;;;12.38;92.00;95306.13;5069674;28;20776;-63
2021/04/27 04:52:22;;;;;;;1999.90;999.90;;;;;;;12.57;91.50;95311.78;5069543;28;20189;-63
2021/04/27 04:54:49;;;;;;;1999.90;999.90;;;;;;;12.63;90.65;95307.94;5069549;28;20694;-63
2021/04/27 04:57:16;;;;;;;1999.90;999.90;;;;;;;12.67;89.85;95319.25;5069434;28;20259;-63
2021/04/27 04:59:42;;;;;;;1999.90;999.90;;;;;;;12.69;89.96;95309.31;5069543;28;20196;-63
2021/04/27 05:02:10;;;;;;;1999.90;999.90;;;;;;;12.59;89.51;95307.03;5069383;28;20196;-64
2021/04/27 05:04:37;;;;;;;1999.90;999.90;;;;;;;12.64;89.47;95306.88;5069581;28;20200;-64
2021/04/27 05:07:06;;;;;;;1999.90;999.90;;;;;;;12.83;88.79;95299.44;5069515;28;20200;-63
2021/04/27 05:09:34;;;;;;;1999.90;999.90;;;;;;;12.92;87.48;95313.22;5069494;28;20193;-64
2021/04/27 05:12:01;;;;;;;1999.90;999.90;;;;;;;12.90;88.15;95299.72;5069078;28;20232;-63
2021/04/27 05:14:28;;;;;;;1999.90;999.90;;;;;;;12.99;87.08;95304.16;5069471;28;20287;-63
2021/04/27 05:16:57;;;;;;;1999.90;999.90;;;;;;;13.09;88.61;95307.19;5069062;28;20311;-62
2021/04/27 05:19:24;;;;;;;1999.90;999.90;;;;;;;13.40;87.16;95306.91;5069295;28;20547;-62
2021/04/27 05:21:51;;;;;;;1999.90;999.90;;;;;;;13.66;85.51;95302.31;5069348;28;20196;-63
2021/04/27 05:24:21;;;;;;;1999.90;999.90;;;;;;;13.94;82.15;95305.22;5069483;28;20208;-64
2021/04/27 05:26:52;;;;;;;1999.90;999.90;;;;;;;14.02;80.81;95298.38;5069339;28;20224;-63
2021/04/27 05:29:19;;;;;;;1999.90;999.90;;;;;;;14.17;80.18;95295.19;5072784;28;20279;-63
2021/04/27 05:31:47;;;;;;;1999.90;999.90;;;;;;;14.34;79.46;95289.81;5073190;28;20276;-64
2021/04/27 05:34:14;;;;;;;1999.90;999.90;;;;;;;14.58;78.80;95305.63;5072784;28;20199;-63
2021/04/27 05:36:41;;;;;;;1999.90;999.90;;;;;;;14.81;77.47;95315.69;5072878;28;20228;-65
2021/04/27 05:39:08;;;;;;;1999.90;999.90;;;;;;;15.00;74.54;95308.09;5072919;28;20197;-64
2021/04/27 05:41:34;;;;;;;1999.90;999.90;;;;;;;14.99;76.45;95288.25;5072834;28;20196;-64
2021/04/27 05:44:02;;;;;;;1999.90;999.90;;;;;;;14.98;77.36;95284.13;5072878;28;20206;-64
2021/04/27 05:46:30;;;;;;;1999.90;999.90;;;;;;;15.01;76.53;95275.59;5072543;28;20755;-64
2021/04/27 05:48:57;;;;;;;1999.90;999.90;;;;;;;14.97;75.99;95275.50;5072634;28;20192;-64
2021/04/27 05:51:24;;;;;;;1999.90;999.90;;;;;;;15.12;76.79;95281.94;5072699;28;20192;-63
2021/04/27 05:53:50;;;;;;;1999.90;999.90;;;;;;;15.22;74.95;95284.13;5072758;28;20200;-64
2021/04/27 05:56:17;;;;;;;1999.90;999.90;;;;;;;15.13;74.08;95283.47;5072506;28;20192;-64
2021/04/27 05:58:44;;;;;;;1999.90;999.90;;;;;;;15.11;72.26;95280.41;5072401;28;20726;-65
2021/04/27 06:01:12;;;;;;;1999.90;999.90;;;;;;;15.07;73.86;95279.53;5072935;28;20208;-64
2021/04/27 06:03:40;;;;;;;1999.90;999.90;;;;;;;15.14;74.72;95285.00;5072501;28;20719;-63
2021/04/27 06:06:07;;;;;;;1999.90;999.90;;;;;;;15.02;73.61;95287.59;5072301;28;20204;-64
2021/04/27 06:08:34;;;;;;;1999.90;999.90;;;;;;;14.95;73.79;95287.38;5072406;28;20197;-63
2021/04/27 06:11:01;;;;;;;1999.90;999.90;;;;;;;14.98;73.29;95281.50;5072172;28;20196;-63
2021/04/27 06:13:28;;;;;;;1999.90;999.90;;;;;;;15.19;73.70;95287.41;5071880;28;20721;-64
2021/04/27 06:15:55;;;;;;;1999.90;999.90;;;;;;;15.57;75.08;95294.94;5072265;28;20193;-64
2021/04/27 06:18:23;;;;;;;1999.90;999.90;;;;;;;15.71;72.00;95290.13;5072357;28;20630;-63
2021/04/27 06:20:49;;;;;;;1999.90;999.90;;;;;;;15.55;72.56;95302.34;5072321;28;20287;-63
2021/04/27 06:23:17;;;;;;;1999.90;999.90;;;;;;;15.89;73.37;95301.09;5072403;28;20193;-62
2021/04/27 06:25:44;;;;;;;1999.90;999.90;;;;;;;16.02;71.31;95302.59;5071986;28;20242;-63
2021/04/27 06:28:13;;;;;;;1999.90;999.90;;;;;;;16.05;74.89;95306.41;5071858;28;20279;-64
2021/04/27 06:30:40;;;;;;;1999.90;999.90;;;;;;;16.09;71.99;95317.78;5071824;28;20193;-63
2021/04/27 06:33:07;;;;;;;1999.90;999.90;;;;;;;16.49;72.43;95323.00;5071973;28;20257;-63
2021/04/27 06:35:35;;;;;;;1999.90;999.90;;;;;;;16.91;71.60;95311.00;5072016;28;20228;-64
2021/04/27 06:38:01;;;;;;;1999.90;999.90;;;;;;;16.95;70.82;95311.06;5071684;28;20229;-62
2021/04/27 06:40:29;;;;;;;1999.90;999.90;;;;;;;16.77;71.85;95319.28;5071207;28;20196;-64
2021/04/27 06:42:56;;;;;;;1999.90;999.90;;;;;;;16.22;71.24;95327.91;5072165;28;20207;-63
2021/04/27 06:45:22;;;;;;;1999.90;999.90;;;;;;;16.47;71.55;95317.31;5071905;28;20207;-63
2021/04/27 06:47:49;;;;;;;1999.90;999.90;;;;;;;16.46;71.77;95313.16;5071688;28;20639;-60
2021/04/27 06:50:18;;;;;;;1999.90;999.90;;;;;;;16.46;73.71;95306.06;5071634;28;20197;-63
2021/04/27 06:52:47;;;;;;;1999.90;999.90;;;;;;;16.44;75.52;95318.72;5071914;28;20226;-63
2021/04/27 06:55:14;;;;;;;1999.90;999.90;;;;;;;16.58;73.81;95313.13;5071926;28;20208;-63
2021/04/27 06:57:41;;;;;;;1999.90;999.90;;;;;;;16.97;71.78;95308.88;5071401;28;20231;-63
2021/04/27 07:00:09;;;;;;;1999.90;999.90;;;;;;;17.10;73.00;95316.34;5071379;28;20192;-64
2021/04/27 07:02:36;;;;;;;1999.90;999.90;;;;;;;16.92;70.91;95314.38;5071485;28;20192;-64
2021/04/27 07:05:03;;;;;;;1999.90;999.90;;;;;;;16.81;69.63;95315.97;5071124;28;20196;-62
2021/04/27 07:07:30;;;;;;;1999.90;999.90;;;;;;;17.00;69.34;95318.69;5071493;28;20200;-63
2021/04/27 07:09:58;;;;;;;1999.90;999.90;;;;;;;17.11;68.31;95317.88;5071405;28;20720;-64
2021/04/27 07:12:25;;;;;;;1999.90;999.90;;;;;;;17.35;64.28;95310.91;5071040;28;20232;-64
2021/04/27 07:14:52;;;;;;;1999.90;999.90;;;;;;;17.27;63.95;95298.72;5071214;28;20646;-62
2021/04/27 07:17:18;;;;;;;1999.90;999.90;;;;;;;17.10;67.04;95297.19;5070897;28;20235;-63
2021/04/27 07:19:45;;;;;;;1999.90;999.90;;;;;;;17.30;63.63;95303.28;5070833;28;20203;-63
2021/04/27 07:22:13;;;;;;;1999.90;999.90;;;;;;;17.15;65.59;95310.84;5070936;28;20246;-62
2021/04/27 07:24:41;;;;;;;1999.90;999.90;;;;;;;17.23;63.98;95305.75;5071145;28;20195;-62
2021/04/27 07:27:08;;;;;;;1999.90;999.90;;;;;;;17.34;63.30;95304.13;5071058;28;20228;-62
2021/04/27 07:29:35;;;;;;;1999.90;999.90;;;;;;;17.33;63.03;95303.38;5070901;28;20279;-62
2021/04/27 07:32:04;;;;;;;1999.90;999.90;;;;;;;17.20;63.28;95294.81;5070708;28;20193;-62
2021/04/27 07:34:30;;;;;;;1999.90;999.90;;;;;;;17.23;62.96;95309.91;5071056;28;20663;-62
2021/04/27 07:36:57;;;;;;;1999.90;999.90;;;;;;;17.47;64.45;95300.31;5070449;28;20196;-61
2021/04/27 07:39:24;;;;;;;1999.90;999.90;;;;;;;17.68;69.35;95290.31;5070584;28;20246;-61
2021/04/27 07:41:51;;;;;;;1999.90;999.90;;;;;;;18.09;67.36;95294.16;5070588;28;20584;-62
2021/04/27 07:44:19;;;;;;;1999.90;999.90;;;;;;;17.99;65.43;95305.22;5070628;28;20196;-63
2021/04/27 07:46:45;;;;;;;1999.90;999.90;;;;;;;17.82;62.98;95309.00;5070437;28;20196;-61
2021/04/27 07:49:12;;;;;;;1999.90;999.90;;;;;;;17.94;61.19;95303.63;5070988;28;20299;-66
2021/04/27 07:51:39;;;;;;;1999.90;999.90;;;;;;;17.70;66.16;95290.72;5069451;28;20196;-61
2021/04/27 07:54:06;;;;;;;1999.90;999.90;;;;;;;17.63;67.97;95285.31;5070549;28;20235;-64
2021/04/27 07:56:34;;;;;;;1999.90;999.90;;;;;;;17.65;66.70;95285.72;5070337;28;20200;-64
2021/04/27 07:59:03;;;;;;;1999.90;999.90;;;;;;;18.34;67.49;95279.63;5070129;28;20240;-63
2021/04/27 08:01:32;;;;;;;1999.90;999.90;;;;;;;18.51;65.79;95281.06;5070370;28;20200;-63
2021/04/27 08:03:59;;;;;;;1999.90;999.90;;;;;;;18.97;62.64;95286.41;5070463;28;20349;-64
2021/04/27 08:06:25;;;;;;;1999.90;999.90;;;;;;;19.11;65.71;95268.19;5070542;28;20365;-64
2021/04/27 08:08:52;;;;;;;1999.90;999.90;;;;;;;19.19;59.24;95261.91;5070450;28;20283;-64
2021/04/27 08:11:19;;;;;;;1999.90;999.90;;;;;;;19.20;59.42;95260.81;5070302;28;20235;-63
2021/04/27 08:13:46;;;;;;;1999.90;999.90;;;;;;;19.15;58.67;95277.66;5069964;28;20224;-65
2021/04/27 08:16:13;;;;;;;1999.90;999.90;;;;;;;19.04;61.45;95278.59;5070169;28;20287;-63
2021/04/27 08:18:41;;;;;;;1999.90;999.90;;;;;;;19.22;61.34;95272.53;5070355;28;20307;-63
2021/04/27 08:21:10;;;;;;;1999.90;999.90;;;;;;;19.32;60.30;95264.03;5070202;28;20188;-63
2021/04/27 08:23:38;;;;;;;1999.90;999.90;;;;;;;19.17;56.58;95272.06;5070353;28;20207;-63
2021/04/27 08:26:07;;;;;;;1999.90;999.90;;;;;;;19.31;60.91;95257.22;5070279;28;20291;-63
2021/04/27 08:28:34;;;;;;;1999.90;999.90;;;;;;;18.83;62.07;95269.22;5069973;28;20651;-63
2021/04/27 08:31:01;;;;;;;1999.90;999.90;;;;;;;19.00;65.42;95270.66;5070314;28;20208;-63
2021/04/27 08:33:29;;;;;;;1999.90;999.90;;;;;;;19.07;66.31;95273.41;5070055;28;20189;-63
2021/04/27 08:35:57;;;;;;;1999.90;999.90;;;;;;;19.33;64.24;95268.16;5070266;28;20196;-63
2021/04/27 08:38:24;;;;;;;1999.90;999.90;;;;;;;19.63;62.45;95262.97;5069872;28;20706;-63
2021/04/27 08:40:53;;;;;;;1999.90;999.90;;;;;;;19.69;63.36;95261.53;5069801;28;20582;-63
2021/04/27 08:43:21;;;;;;;1999.90;999.90;;;;;;;19.61;60.85;95259.94;5070107;28;20185;-62
2021/04/27 08:45:48;;;;;;;1999.90;999.90;;;;;;;19.69;60.10;95245.72;5070115;28;20286;-62
2021/04/27 08:48:15;;;;;;;1999.90;999.90;;;;;;;19.55;62.41;95245.53;5069745;28;20228;-63
2021/04/27 08:50:43;;;;;;;1999.90;999.90;;;;;;;19.57;62.14;95239.91;5069957;28;20606;-64
2021/04/27 08:53:12;;;;;;;1999.90;999.90;;;;;;;19.35;62.14;95233.53;5070264;28;20232;-64
2021/04/27 08:55:40;;;;;;;1999.90;999.90;;;;;;;19.32;62.45;95235.03;5069836;28;20196;-62
2021/04/27 08:58:08;;;;;;;1999.90;999.90;;;;;;;19.16;56.49;95233.66;5069802;28;20236;-63
2021/04/27 09:00:35;;;;;;;1999.90;999.90;;;;;;;19.28;59.33;95234.19;5069779;28;20197;-64
2021/04/27 09:03:04;;;;;;;1999.90;999.90;;;;;;;19.40;57.95;95241.16;5071464;28;20330;-61
2021/04/27 09:05:33;;;;;;;1999.90;999.90;;;;;;;19.54;54.23;95243.25;5073786;28;20345;-64
2021/04/27 09:08:00;;;;;;;1999.90;999.90;;;;;;;19.57;54.31;95224.84;5073563;28;20196;-63
2021/04/27 09:10:31;;;;;;;1999.90;999.90;;;;;;;20.03;52.92;95238.59;5074022;28;20283;-62
2021/04/27 09:13:01;;;;;;;1999.90;999.90;;;;;;;20.30;52.67;95244.56;5073530;28;20327;-64
2021/04/27 09:15:35;;;;;;;1999.90;999.90;;;;;;;20.25;56.47;95242.25;5073846;28;20196;-63
2021/04/27 09:18:23;;;;;;;1999.90;999.90;;;;;;;20.13;52.65;95237.19;5073493;28;20223;-63
2021/04/27 09:20:52;;;;;;;1999.90;999.90;;;;;;;19.86;50.96;95241.03;5073436;28;20616;-64
2021/04/27 09:23:22;;;;;;;1999.90;999.90;;;;;;;19.96;51.18;95237.78;5073677;28;20255;-64
2021/04/27 09:26:11;;;;;;;1999.90;999.90;;;;;;;20.01;53.42;95237.44;5073563;28;20206;-62
2021/04/27 09:28:39;;;;;;;1999.90;999.90;;;;;;;19.89;53.60;95229.75;5073197;28;20257;-62
2021/04/27 09:31:28;;;;;;;1999.90;999.90;;;;;;;19.78;52.48;95221.72;5073034;28;20274;-62
2021/04/27 09:34:16;;;;;;;1999.90;999.90;;;;;;;19.56;55.73;95227.84;5072967;28;20219;-63
2021/04/27 09:36:43;;;;;;;1999.90;999.90;;;;;;;19.48;53.63;95224.34;5073113;28;20197;-64
2021/04/27 09:39:10;;;;;;;1999.90;999.90;;;;;;;19.28;53.41;95215.75;5073044;28;20322;-62
2021/04/27 09:41:37;;;;;;;1999.90;999.90;;;;;;;19.24;54.68;95211.53;5072953;28;20208;-63
2021/04/27 09:44:04;;;;;;;1999.90;999.90;;;;;;;19.11;55.07;95210.22;5073232;28;20216;-64
2021/04/27 09:46:31;;;;;;;1999.90;999.90;;;;;;;18.56;58.39;95208.97;5073053;28;20204;-63
2021/04/27 09:48:58;;;;;;;1999.90;999.90;;;;;;;18.80;59.38;95198.09;5072601;28;20739;-62
2021/04/27 09:51:27;;;;;;;1999.90;999.90;;;;;;;18.98;56.70;95182.59;5072870;28;20204;-63
2021/04/27 09:53:56;;;;;;;1999.90;999.90;;;;;;;19.25;56.29;95168.28;5072860;28;20200;-64
2021/04/27 09:56:34;;;;;;;1999.90;999.90;;;;;;;19.49;53.04;95157.31;5072753;28;20203;-64
2021/04/27 09:59:03;;;;;;;1999.90;999.90;;;;;;;19.74;53.47;95161.03;5072637;28;20220;-63
2021/04/27 10:01:30;;;;;;;1999.90;999.90;;;;;;;20.18;52.17;95160.34;5072622;28;20204;-62
2021/04/27 10:03:57;;;;;;;1999.90;999.90;;;;;;;20.42;50.37;95165.13;5072512;28;20211;-63
2021/04/27 10:06:25;;;;;;;1999.90;999.90;;;;;;;20.73;51.29;95173.69;5072473;28;20695;-64
2021/04/27 10:08:51;;;;;;;1999.90;999.90;;;;;;;20.87;48.48;95165.91;5072323;28;20590;-63
2021/04/27 10:11:19;;;;;;;1999.90;999.90;;;;;;;21.12;46.29;95180.00;5072417;28;20703;-63
2021/04/27 10:13:46;;;;;;;1999.90;999.90;;;;;;;21.00;47.48;95183.72;5071349;28;20733;-64
2021/04/27 10:16:15;;;;;;;1999.90;999.90;;;;;;;20.90;48.37;95188.94;5072390;28;20199;-63
2021/04/27 10:18:42;;;;;;;1999.90;999.90;;;;;;;20.50;47.35;95182.56;5072233;28;20668;-62
2021/04/27 10:21:11;;;;;;;1999.90;999.90;;;;;;;20.22;50.47;95189.44;5072199;28;20284;-63
2021/04/27 10:23:40;;;;;;;1999.90;999.90;;;;;;;19.80;52.57;95187.84;5072437;28;20251;-62
2021/04/27 10:26:07;;;;;;;1999.90;999.90;;;;;;;19.71;50.56;95180.22;5072017;28;20197;-61
2021/04/27 10:29:04;;;;;;;1999.90;999.90;;;;;;;19.58;52.01;95186.06;5072236;28;20196;-64
2021/04/27 10:31:34;;;;;;;1999.90;999.90;;;;;;;18.98;52.06;95196.50;5072108;28;20218;-63
2021/04/27 10:34:05;;;;;;;1999.90;999.90;;;;;;;18.68;57.42;95190.41;5072181;28;20246;-61
2021/04/27 10:36:34;;;;;;;1999.90;999.90;;;;;;;18.90;54.90;95190.38;5072260;28;20231;-64
2021/04/27 10:39:03;;;;;;;1999.90;999.90;;;;;;;18.97;53.29;95188.97;5071744;28;20577;-64
2021/04/27 10:41:48;;;;;;;1999.90;999.90;;;;;;;18.92;54.97;95188.16;5072012;28;20287;-63
2021/04/27 10:44:16;;;;;;;1999.90;999.90;;;;;;;18.77;56.09;95189.03;5072143;28;20224;-63
2021/04/27 10:46:49;;;;;;;1999.90;999.90;;;;;;;18.67;55.09;95181.75;5072155;28;20193;-63
2021/04/27 10:49:23;;;;;;;1999.90;999.90;;;;;;;18.70;55.72;95181.03;5071689;28;20203;-62
2021/04/27 10:51:51;;;;;;;1999.90;999.90;;;;;;;18.22;56.73;95186.94;5071876;28;20216;-63
2021/04/27 10:54:24;;;;;;;1999.90;999.90;;;;;;;18.32;54.20;95189.00;5071529;28;20188;-62
2021/04/27 10:56:52;;;;;;;1999.90;999.90;;;;;;;18.48;56.00;95187.78;5072041;28;20279;-61
2021/04/27 10:59:21;;;;;;;1999.90;999.90;;;;;;;18.69;57.96;95184.75;5071621;28;20327;-63
2021/04/27 11:02:09;;;;;;;1999.90;999.90;;;;;;;18.97;57.67;95178.44;5071352;28;20203;-63